Redwood City, CA (94064)

8:33 PM PST on December 19, 2014 (GMT -0800)
Redwood City Hills | Change Station
CLOSE
Current Station
Personal Weather Station
Location: Redwood City, CA
Elevation: 170 ft
Nearby Weather Stations

Elev 170 ft 37.47 °N, 122.25 °W | Updated 6 seconds ago

Mostly Cloudy
Mostly Cloudy
56.8 °F
Feels Like 56.8 °F
N
0.0
Wind Variable Wind from West
Gusts 0.0 mph

Today
High -- | Low -- °F
--% Chance of Precip.
Yesterday
High -- | Low -- °F
Precip. -- in
7:18 AM 4:53 PM
Waning Crescent, 4% visible
Pressure 30.14 in
Visibility -9999.0 miles
Clouds Overcast 500 ft
Dew Point 55 °F
Humidity 94%
Rainfall 0.24 in
Snow Depth Not available.
UV 0 out of 12
Pollen 2.00 out of 12
Air Quality Not available.
Flu Activity Not available.
METAR KSQL 200347Z 15003KT 7 SM OVC005 13/13 A3014

More Conditions Fewer Conditions

Pressure 30.14 in
Visibility -9999.0 miles
Clouds Overcast 500 ft
Dew Point 55 °F
Humidity 94%
Rainfall 0.24 in
Snow Depth Not available.
UV 0 out of 12
Pollen 2.00 out of 12
Air Quality Not available.
Flu Activity Not available.
METAR KSQL 200347Z 15003KT 7 SM OVC005 13/13 A3014

More Conditions Fewer Conditions

10-Day Weather Forecast

Almanac

Astronomy

Dec. 19, 2014 Rise Set
Actual Time
Civil Twilight
Nautical Twilight
Astronomical Twilight
Moon
Length of Visible Light
Length of Day
Tomorrow will be .
, % of the Moon is Illuminated

Today's Extremes

State Highs State Lows

Community

WunderPhotos

Upload Photos

1,779,130 photos uploaded!

WunderBlogs® & News

Nearby

Air Quality

  Air Quality AQ Index Pollutant
Not available.

Snow Depth

Station Depth Elevation

Earthquake Activity

City Distance Mag. Time & Date
Minimum magnitude displayed is 2.5.

Coastal Water Temperatures

Place Temperature

Nearby Weather Stations